sensor_id;sensor_type;location;lat;lon;timestamp;temperature;humidity
35559;DHT22;21661;50.794;-1.066;2022-07-10T00:00:29;19.50;99.90
35559;DHT22;21661;50.794;-1.066;2022-07-10T00:02:55;19.50;99.90
35559;DHT22;21661;50.794;-1.066;2022-07-10T00:05:22;19.50;99.90
35559;DHT22;21661;50.794;-1.066;2022-07-10T00:07:48;19.50;99.90
35559;DHT22;21661;50.794;-1.066;2022-07-10T00:10:15;19.50;99.90
35559;DHT22;21661;50.794;-1.066;2022-07-10T00:12:41;19.50;99.90
35559;DHT22;21661;50.794;-1.066;2022-07-10T00:15:07;19.50;99.90
35559;DHT22;21661;50.794;-1.066;2022-07-10T00:17:33;19.50;99.90
35559;DHT22;21661;50.794;-1.066;2022-07-10T00:19:59;19.50;99.90
35559;DHT22;21661;50.794;-1.066;2022-07-10T00:22:25;19.50;99.90
35559;DHT22;21661;50.794;-1.066;2022-07-10T00:24:51;19.50;99.90
35559;DHT22;21661;50.794;-1.066;2022-07-10T00:27:17;19.50;99.90
35559;DHT22;21661;50.794;-1.066;2022-07-10T00:29:43;19.50;99.90
35559;DHT22;21661;50.794;-1.066;2022-07-10T00:32:09;19.50;99.90
35559;DHT22;21661;50.794;-1.066;2022-07-10T00:34:36;19.50;99.90
35559;DHT22;21661;50.794;-1.066;2022-07-10T00:37:03;19.50;99.90
35559;DHT22;21661;50.794;-1.066;2022-07-10T00:39:29;19.50;99.90
35559;DHT22;21661;50.794;-1.066;2022-07-10T00:41:55;19.40;99.90
35559;DHT22;21661;50.794;-1.066;2022-07-10T00:44:20;19.40;99.90
35559;DHT22;21661;50.794;-1.066;2022-07-10T00:46:46;19.40;99.90
35559;DHT22;21661;50.794;-1.066;2022-07-10T00:49:12;19.40;99.90
35559;DHT22;21661;50.794;-1.066;2022-07-10T00:51:38;19.30;99.90
35559;DHT22;21661;50.794;-1.066;2022-07-10T00:54:05;19.40;99.90
35559;DHT22;21661;50.794;-1.066;2022-07-10T00:56:31;19.30;99.90
35559;DHT22;21661;50.794;-1.066;2022-07-10T00:58:57;19.40;99.90
35559;DHT22;21661;50.794;-1.066;2022-07-10T01:01:23;19.40;99.90
35559;DHT22;21661;50.794;-1.066;2022-07-10T01:03:49;19.40;99.90
35559;DHT22;21661;50.794;-1.066;2022-07-10T01:06:16;19.40;99.90
35559;DHT22;21661;50.794;-1.066;2022-07-10T01:08:43;19.30;99.90
35559;DHT22;21661;50.794;-1.066;2022-07-10T01:11:09;19.30;99.90
35559;DHT22;21661;50.794;-1.066;2022-07-10T01:13:36;19.30;99.90
35559;DHT22;21661;50.794;-1.066;2022-07-10T01:16:02;19.30;99.90
35559;DHT22;21661;50.794;-1.066;2022-07-10T01:18:27;19.30;99.90
35559;DHT22;21661;50.794;-1.066;2022-07-10T01:20:54;19.20;99.90
35559;DHT22;21661;50.794;-1.066;2022-07-10T01:23:20;19.20;99.90
35559;DHT22;21661;50.794;-1.066;2022-07-10T01:25:48;19.10;99.90
35559;DHT22;21661;50.794;-1.066;2022-07-10T01:28:14;19.10;99.90
35559;DHT22;21661;50.794;-1.066;2022-07-10T01:30:40;19.10;99.90
35559;DHT22;21661;50.794;-1.066;2022-07-10T01:33:06;19.10;99.90
35559;DHT22;21661;50.794;-1.066;2022-07-10T01:35:32;19.10;99.90
35559;DHT22;21661;50.794;-1.066;2022-07-10T01:37:57;19.10;99.90
35559;DHT22;21661;50.794;-1.066;2022-07-10T01:40:23;19.00;99.90
35559;DHT22;21661;50.794;-1.066;2022-07-10T01:42:49;19.10;99.90
35559;DHT22;21661;50.794;-1.066;2022-07-10T01:45:16;19.10;99.90
35559;DHT22;21661;50.794;-1.066;2022-07-10T01:47:43;19.00;99.90
35559;DHT22;21661;50.794;-1.066;2022-07-10T01:50:09;19.00;99.90
35559;DHT22;21661;50.794;-1.066;2022-07-10T01:52:35;18.90;99.90
35559;DHT22;21661;50.794;-1.066;2022-07-10T01:55:01;18.80;99.90
35559;DHT22;21661;50.794;-1.066;2022-07-10T01:57:27;18.80;99.90
35559;DHT22;21661;50.794;-1.066;2022-07-10T01:59:53;18.80;99.90
35559;DHT22;21661;50.794;-1.066;2022-07-10T02:02:19;18.70;99.90
35559;DHT22;21661;50.794;-1.066;2022-07-10T02:04:45;18.70;99.90
35559;DHT22;21661;50.794;-1.066;2022-07-10T02:07:12;18.60;99.90
35559;DHT22;21661;50.794;-1.066;2022-07-10T02:09:38;18.70;99.90
35559;DHT22;21661;50.794;-1.066;2022-07-10T02:12:08;18.70;99.90
35559;DHT22;21661;50.794;-1.066;2022-07-10T02:14:35;18.70;99.90
35559;DHT22;21661;50.794;-1.066;2022-07-10T02:17:01;18.70;99.90
35559;DHT22;21661;50.794;-1.066;2022-07-10T02:19:27;18.60;99.90
35559;DHT22;21661;50.794;-1.066;2022-07-10T02:21:52;18.50;99.90
35559;DHT22;21661;50.794;-1.066;2022-07-10T02:24:18;18.50;99.90
35559;DHT22;21661;50.794;-1.066;2022-07-10T02:26:44;18.50;99.90
35559;DHT22;21661;50.794;-1.066;2022-07-10T02:29:10;18.50;99.90
35559;DHT22;21661;50.794;-1.066;2022-07-10T02:31:36;18.50;99.90
35559;DHT22;21661;50.794;-1.066;2022-07-10T02:34:09;18.50;99.90
35559;DHT22;21661;50.794;-1.066;2022-07-10T02:36:35;18.50;99.90
35559;DHT22;21661;50.794;-1.066;2022-07-10T02:39:02;18.50;99.90
35559;DHT22;21661;50.794;-1.066;2022-07-10T02:41:28;18.40;99.90
35559;DHT22;21661;50.794;-1.066;2022-07-10T02:43:53;18.30;99.90
35559;DHT22;21661;50.794;-1.066;2022-07-10T02:46:19;18.30;99.90
35559;DHT22;21661;50.794;-1.066;2022-07-10T02:48:45;18.40;99.90
35559;DHT22;21661;50.794;-1.066;2022-07-10T02:51:11;18.40;99.90
35559;DHT22;21661;50.794;-1.066;2022-07-10T02:53:36;18.30;99.90
35559;DHT22;21661;50.794;-1.066;2022-07-10T02:56:02;18.40;99.90
35559;DHT22;21661;50.794;-1.066;2022-07-10T02:58:28;18.30;99.90
35559;DHT22;21661;50.794;-1.066;2022-07-10T03:00:53;18.30;99.90
35559;DHT22;21661;50.794;-1.066;2022-07-10T03:03:19;18.30;99.90
35559;DHT22;21661;50.794;-1.066;2022-07-10T03:05:45;18.20;99.90
35559;DHT22;21661;50.794;-1.066;2022-07-10T03:08:11;18.20;99.90
35559;DHT22;21661;50.794;-1.066;2022-07-10T03:10:37;18.20;99.90
35559;DHT22;21661;50.794;-1.066;2022-07-10T03:13:03;18.10;99.90
35559;DHT22;21661;50.794;-1.066;2022-07-10T03:15:29;18.20;99.90
35559;DHT22;21661;50.794;-1.066;2022-07-10T03:17:54;18.10;99.90
35559;DHT22;21661;50.794;-1.066;2022-07-10T03:20:20;18.10;99.90
35559;DHT22;21661;50.794;-1.066;2022-07-10T03:22:46;18.00;99.90
35559;DHT22;21661;50.794;-1.066;2022-07-10T03:25:12;18.00;99.90
35559;DHT22;21661;50.794;-1.066;2022-07-10T03:27:39;18.00;99.90
35559;DHT22;21661;50.794;-1.066;2022-07-10T03:30:05;18.00;99.90
35559;DHT22;21661;50.794;-1.066;2022-07-10T03:32:31;18.10;99.90
35559;DHT22;21661;50.794;-1.066;2022-07-10T03:34:57;18.00;99.90
35559;DHT22;21661;50.794;-1.066;2022-07-10T03:37:23;18.10;99.90
35559;DHT22;21661;50.794;-1.066;2022-07-10T03:39:48;18.00;99.90
35559;DHT22;21661;50.794;-1.066;2022-07-10T03:42:14;18.00;99.90
35559;DHT22;21661;50.794;-1.066;2022-07-10T03:44:40;18.00;99.90
35559;DHT22;21661;50.794;-1.066;2022-07-10T03:47:05;18.00;99.90
35559;DHT22;21661;50.794;-1.066;2022-07-10T03:49:31;18.00;99.90
35559;DHT22;21661;50.794;-1.066;2022-07-10T03:52:02;18.00;99.90
35559;DHT22;21661;50.794;-1.066;2022-07-10T03:54:29;17.90;99.90
35559;DHT22;21661;50.794;-1.066;2022-07-10T03:56:58;17.90;99.90
35559;DHT22;21661;50.794;-1.066;2022-07-10T03:59:42;17.80;99.90
35559;DHT22;21661;50.794;-1.066;2022-07-10T04:02:08;17.80;99.90
35559;DHT22;21661;50.794;-1.066;2022-07-10T04:04:34;17.70;99.90
35559;DHT22;21661;50.794;-1.066;2022-07-10T04:07:00;17.70;99.90
35559;DHT22;21661;50.794;-1.066;2022-07-10T04:09:25;17.70;99.90
35559;DHT22;21661;50.794;-1.066;2022-07-10T04:11:51;17.70;99.90
35559;DHT22;21661;50.794;-1.066;2022-07-10T04:14:17;17.70;99.90
35559;DHT22;21661;50.794;-1.066;2022-07-10T04:16:42;17.70;99.90
35559;DHT22;21661;50.794;-1.066;2022-07-10T04:19:08;17.70;99.90
35559;DHT22;21661;50.794;-1.066;2022-07-10T04:21:34;17.70;99.90
35559;DHT22;21661;50.794;-1.066;2022-07-10T04:23:59;17.70;99.90
35559;DHT22;21661;50.794;-1.066;2022-07-10T04:26:25;17.70;99.90
35559;DHT22;21661;50.794;-1.066;2022-07-10T04:28:50;17.70;99.90
35559;DHT22;21661;50.794;-1.066;2022-07-10T04:31:16;17.70;99.90
35559;DHT22;21661;50.794;-1.066;2022-07-10T04:33:42;17.70;99.90
35559;DHT22;21661;50.794;-1.066;2022-07-10T04:36:08;17.70;99.90
35559;DHT22;21661;50.794;-1.066;2022-07-10T04:38:33;17.70;99.90
35559;DHT22;21661;50.794;-1.066;2022-07-10T04:40:59;17.70;99.90
35559;DHT22;21661;50.794;-1.066;2022-07-10T04:43:25;17.70;99.90
35559;DHT22;21661;50.794;-1.066;2022-07-10T04:45:51;17.70;99.90
35559;DHT22;21661;50.794;-1.066;2022-07-10T04:48:16;17.70;99.90
35559;DHT22;21661;50.794;-1.066;2022-07-10T04:50:42;17.70;99.90
35559;DHT22;21661;50.794;-1.066;2022-07-10T04:53:08;17.70;99.90
35559;DHT22;21661;50.794;-1.066;2022-07-10T04:55:33;17.70;99.90
35559;DHT22;21661;50.794;-1.066;2022-07-10T04:57:59;17.70;99.90
35559;DHT22;21661;50.794;-1.066;2022-07-10T05:00:25;17.70;99.90
35559;DHT22;21661;50.794;-1.066;2022-07-10T05:02:51;17.80;99.90
35559;DHT22;21661;50.794;-1.066;2022-07-10T05:05:16;17.70;99.90
35559;DHT22;21661;50.794;-1.066;2022-07-10T05:07:42;17.70;99.90
35559;DHT22;21661;50.794;-1.066;2022-07-10T05:10:09;17.70;99.90
35559;DHT22;21661;50.794;-1.066;2022-07-10T05:12:34;17.70;99.90
35559;DHT22;21661;50.794;-1.066;2022-07-10T05:15:01;17.80;99.90
35559;DHT22;21661;50.794;-1.066;2022-07-10T05:17:27;17.80;99.90
35559;DHT22;21661;50.794;-1.066;2022-07-10T05:19:54;17.80;99.90
35559;DHT22;21661;50.794;-1.066;2022-07-10T05:22:21;17.80;99.90
35559;DHT22;21661;50.794;-1.066;2022-07-10T05:24:48;17.80;99.90
35559;DHT22;21661;50.794;-1.066;2022-07-10T05:27:13;17.80;99.90
35559;DHT22;21661;50.794;-1.066;2022-07-10T05:29:39;17.90;99.90
35559;DHT22;21661;50.794;-1.066;2022-07-10T05:32:05;17.90;99.90
35559;DHT22;21661;50.794;-1.066;2022-07-10T05:34:30;18.00;99.90
35559;DHT22;21661;50.794;-1.066;2022-07-10T05:36:56;18.00;99.90
35559;DHT22;21661;50.794;-1.066;2022-07-10T05:39:22;18.00;99.90
35559;DHT22;21661;50.794;-1.066;2022-07-10T05:41:51;18.00;99.90
35559;DHT22;21661;50.794;-1.066;2022-07-10T05:44:18;18.00;99.90
35559;DHT22;21661;50.794;-1.066;2022-07-10T05:46:45;18.00;99.90
35559;DHT22;21661;50.794;-1.066;2022-07-10T05:49:11;18.10;99.90
35559;DHT22;21661;50.794;-1.066;2022-07-10T05:51:36;18.10;99.90
35559;DHT22;21661;50.794;-1.066;2022-07-10T05:54:02;18.20;99.90
35559;DHT22;21661;50.794;-1.066;2022-07-10T05:56:29;18.20;99.90
35559;DHT22;21661;50.794;-1.066;2022-07-10T05:58:54;18.20;99.90
35559;DHT22;21661;50.794;-1.066;2022-07-10T06:01:24;18.30;99.90
35559;DHT22;21661;50.794;-1.066;2022-07-10T06:03:51;18.30;99.90
35559;DHT22;21661;50.794;-1.066;2022-07-10T06:06:17;18.30;99.90
35559;DHT22;21661;50.794;-1.066;2022-07-10T06:08:44;18.30;99.90
35559;DHT22;21661;50.794;-1.066;2022-07-10T06:11:11;18.40;99.90
35559;DHT22;21661;50.794;-1.066;2022-07-10T06:13:37;18.40;99.90
35559;DHT22;21661;50.794;-1.066;2022-07-10T06:16:03;18.50;99.90
35559;DHT22;21661;50.794;-1.066;2022-07-10T06:18:33;18.50;99.90
35559;DHT22;21661;50.794;-1.066;2022-07-10T06:20:59;18.50;99.90
35559;DHT22;21661;50.794;-1.066;2022-07-10T06:23:24;18.50;99.90
35559;DHT22;21661;50.794;-1.066;2022-07-10T06:25:50;18.50;99.90
35559;DHT22;21661;50.794;-1.066;2022-07-10T06:28:16;18.60;99.90
35559;DHT22;21661;50.794;-1.066;2022-07-10T06:30:42;18.60;99.90
35559;DHT22;21661;50.794;-1.066;2022-07-10T06:33:08;18.70;99.90
35559;DHT22;21661;50.794;-1.066;2022-07-10T06:35:34;18.70;99.90
35559;DHT22;21661;50.794;-1.066;2022-07-10T06:37:59;18.70;99.90
35559;DHT22;21661;50.794;-1.066;2022-07-10T06:40:26;18.70;99.90
35559;DHT22;21661;50.794;-1.066;2022-07-10T06:42:53;18.70;99.90
35559;DHT22;21661;50.794;-1.066;2022-07-10T06:45:19;18.80;99.90
35559;DHT22;21661;50.794;-1.066;2022-07-10T06:47:45;18.80;99.90
35559;DHT22;21661;50.794;-1.066;2022-07-10T06:50:25;18.90;99.90
35559;DHT22;21661;50.794;-1.066;2022-07-10T06:52:52;18.90;99.90
35559;DHT22;21661;50.794;-1.066;2022-07-10T06:55:21;19.00;99.90
35559;DHT22;21661;50.794;-1.066;2022-07-10T06:57:47;19.00;99.90
35559;DHT22;21661;50.794;-1.066;2022-07-10T07:00:13;19.00;99.90
35559;DHT22;21661;50.794;-1.066;2022-07-10T07:02:39;19.00;99.90
35559;DHT22;21661;50.794;-1.066;2022-07-10T07:05:06;19.00;99.90
35559;DHT22;21661;50.794;-1.066;2022-07-10T07:07:32;18.90;99.90
35559;DHT22;21661;50.794;-1.066;2022-07-10T07:09:57;18.90;99.90
35559;DHT22;21661;50.794;-1.066;2022-07-10T07:12:23;19.00;99.90
35559;DHT22;21661;50.794;-1.066;2022-07-10T07:14:49;19.00;99.90
35559;DHT22;21661;50.794;-1.066;2022-07-10T07:17:15;19.10;99.90
35559;DHT22;21661;50.794;-1.066;2022-07-10T07:19:47;19.20;99.90
35559;DHT22;21661;50.794;-1.066;2022-07-10T07:22:31;19.20;99.90
35559;DHT22;21661;50.794;-1.066;2022-07-10T07:25:16;19.20;99.90
35559;DHT22;21661;50.794;-1.066;2022-07-10T07:27:41;19.20;99.90
35559;DHT22;21661;50.794;-1.066;2022-07-10T07:30:12;19.20;99.90
35559;DHT22;21661;50.794;-1.066;2022-07-10T07:32:40;19.10;99.90
35559;DHT22;21661;50.794;-1.066;2022-07-10T07:35:07;19.20;99.90
35559;DHT22;21661;50.794;-1.066;2022-07-10T07:37:44;19.20;99.90
35559;DHT22;21661;50.794;-1.066;2022-07-10T07:40:20;19.20;99.90
35559;DHT22;21661;50.794;-1.066;2022-07-10T07:42:48;19.20;99.90
35559;DHT22;21661;50.794;-1.066;2022-07-10T07:45:14;19.20;99.90
35559;DHT22;21661;50.794;-1.066;2022-07-10T07:47:50;19.20;99.90
35559;DHT22;21661;50.794;-1.066;2022-07-10T07:50:18;19.20;99.90
35559;DHT22;21661;50.794;-1.066;2022-07-10T07:52:44;19.30;99.90
35559;DHT22;21661;50.794;-1.066;2022-07-10T07:55:11;19.40;99.90
35559;DHT22;21661;50.794;-1.066;2022-07-10T07:57:37;19.40;99.90
35559;DHT22;21661;50.794;-1.066;2022-07-10T08:00:07;19.50;99.90
35559;DHT22;21661;50.794;-1.066;2022-07-10T08:02:34;19.60;99.90
35559;DHT22;21661;50.794;-1.066;2022-07-10T08:05:01;19.70;99.90
35559;DHT22;21661;50.794;-1.066;2022-07-10T08:07:59;19.70;99.90
35559;DHT22;21661;50.794;-1.066;2022-07-10T08:10:30;19.80;99.90
35559;DHT22;21661;50.794;-1.066;2022-07-10T08:12:56;19.70;99.90
35559;DHT22;21661;50.794;-1.066;2022-07-10T08:15:22;19.80;99.90
35559;DHT22;21661;50.794;-1.066;2022-07-10T08:17:56;19.80;99.90
35559;DHT22;21661;50.794;-1.066;2022-07-10T08:20:23;19.80;99.90
35559;DHT22;21661;50.794;-1.066;2022-07-10T08:22:50;19.80;99.90
35559;DHT22;21661;50.794;-1.066;2022-07-10T08:25:16;19.80;99.90
35559;DHT22;21661;50.794;-1.066;2022-07-10T08:27:42;19.80;99.90
35559;DHT22;21661;50.794;-1.066;2022-07-10T08:30:09;19.80;99.90
35559;DHT22;21661;50.794;-1.066;2022-07-10T08:32:35;19.80;99.90
35559;DHT22;21661;50.794;-1.066;2022-07-10T08:35:02;19.80;99.90
35559;DHT22;21661;50.794;-1.066;2022-07-10T08:37:28;19.80;99.90
35559;DHT22;21661;50.794;-1.066;2022-07-10T08:39:54;19.90;99.90
35559;DHT22;21661;50.794;-1.066;2022-07-10T08:42:20;20.00;99.90
35559;DHT22;21661;50.794;-1.066;2022-07-10T08:44:46;20.00;99.90
35559;DHT22;21661;50.794;-1.066;2022-07-10T08:47:13;20.10;99.90
35559;DHT22;21661;50.794;-1.066;2022-07-10T08:49:46;20.10;99.90
35559;DHT22;21661;50.794;-1.066;2022-07-10T08:52:35;20.10;99.90
35559;DHT22;21661;50.794;-1.066;2022-07-10T08:55:04;20.10;99.90
35559;DHT22;21661;50.794;-1.066;2022-07-10T08:57:30;20.10;99.90
35559;DHT22;21661;50.794;-1.066;2022-07-10T08:59:57;20.20;99.90
35559;DHT22;21661;50.794;-1.066;2022-07-10T09:02:23;20.30;99.90
35559;DHT22;21661;50.794;-1.066;2022-07-10T09:04:48;20.30;99.90
35559;DHT22;21661;50.794;-1.066;2022-07-10T09:07:14;20.40;99.90
35559;DHT22;21661;50.794;-1.066;2022-07-10T09:09:57;20.40;99.90
35559;DHT22;21661;50.794;-1.066;2022-07-10T09:12:24;20.40;99.90
35559;DHT22;21661;50.794;-1.066;2022-07-10T09:14:51;20.50;99.90
35559;DHT22;21661;50.794;-1.066;2022-07-10T09:17:19;20.60;99.90
35559;DHT22;21661;50.794;-1.066;2022-07-10T09:19:45;20.70;99.90
35559;DHT22;21661;50.794;-1.066;2022-07-10T09:22:12;20.70;99.90
35559;DHT22;21661;50.794;-1.066;2022-07-10T09:24:40;20.80;99.90
35559;DHT22;21661;50.794;-1.066;2022-07-10T09:27:07;20.80;99.90
35559;DHT22;21661;50.794;-1.066;2022-07-10T09:29:45;20.90;99.90
35559;DHT22;21661;50.794;-1.066;2022-07-10T09:32:12;20.90;99.90
35559;DHT22;21661;50.794;-1.066;2022-07-10T09:34:40;20.90;99.90
35559;DHT22;21661;50.794;-1.066;2022-07-10T09:37:23;20.90;99.90
35559;DHT22;21661;50.794;-1.066;2022-07-10T09:45:39;20.90;99.90
35559;DHT22;21661;50.794;-1.066;2022-07-10T09:48:16;20.80;99.90
35559;DHT22;21661;50.794;-1.066;2022-07-10T09:54:29;20.70;99.90
35559;DHT22;21661;50.794;-1.066;2022-07-10T09:57:18;20.80;99.90
35559;DHT22;21661;50.794;-1.066;2022-07-10T10:00:01;20.80;99.90
35559;DHT22;21661;50.794;-1.066;2022-07-10T10:02:38;20.90;99.90
35559;DHT22;21661;50.794;-1.066;2022-07-10T10:05:14;21.00;99.90
35559;DHT22;21661;50.794;-1.066;2022-07-10T10:07:47;21.00;99.90
35559;DHT22;21661;50.794;-1.066;2022-07-10T10:10:14;21.00;99.90
35559;DHT22;21661;50.794;-1.066;2022-07-10T10:12:50;21.00;99.90
35559;DHT22;21661;50.794;-1.066;2022-07-10T10:15:18;21.00;99.90
35559;DHT22;21661;50.794;-1.066;2022-07-10T10:17:45;21.00;99.90
35559;DHT22;21661;50.794;-1.066;2022-07-10T10:20:12;21.00;99.90
35559;DHT22;21661;50.794;-1.066;2022-07-10T10:22:58;21.10;99.90
35559;DHT22;21661;50.794;-1.066;2022-07-10T10:25:26;21.20;99.90
35559;DHT22;21661;50.794;-1.066;2022-07-10T10:27:54;21.20;99.90
35559;DHT22;21661;50.794;-1.066;2022-07-10T10:30:20;21.10;99.90
35559;DHT22;21661;50.794;-1.066;2022-07-10T10:32:46;21.10;99.90
35559;DHT22;21661;50.794;-1.066;2022-07-10T10:35:42;21.20;99.90
35559;DHT22;21661;50.794;-1.066;2022-07-10T10:38:08;21.20;99.90
35559;DHT22;21661;50.794;-1.066;2022-07-10T10:40:34;21.20;99.90
35559;DHT22;21661;50.794;-1.066;2022-07-10T10:43:24;21.20;99.90
35559;DHT22;21661;50.794;-1.066;2022-07-10T10:45:52;21.40;99.90
35559;DHT22;21661;50.794;-1.066;2022-07-10T10:48:19;21.40;99.90
35559;DHT22;21661;50.794;-1.066;2022-07-10T10:50:52;21.40;99.90
35559;DHT22;21661;50.794;-1.066;2022-07-10T10:53:26;21.50;99.90
35559;DHT22;21661;50.794;-1.066;2022-07-10T10:58:40;21.20;99.90
35559;DHT22;21661;50.794;-1.066;2022-07-10T11:01:27;21.20;99.90
35559;DHT22;21661;50.794;-1.066;2022-07-10T11:06:51;21.30;99.90
35559;DHT22;21661;50.794;-1.066;2022-07-10T11:09:33;21.50;99.90
35559;DHT22;21661;50.794;-1.066;2022-07-10T11:12:08;21.60;99.90
35559;DHT22;21661;50.794;-1.066;2022-07-10T11:14:36;21.70;99.90
35559;DHT22;21661;50.794;-1.066;2022-07-10T11:17:04;21.80;99.90
35559;DHT22;21661;50.794;-1.066;2022-07-10T11:19:31;21.80;99.90
35559;DHT22;21661;50.794;-1.066;2022-07-10T11:22:28;21.80;99.90
35559;DHT22;21661;50.794;-1.066;2022-07-10T11:25:00;21.90;99.90
35559;DHT22;21661;50.794;-1.066;2022-07-10T11:30:14;22.00;99.90
35559;DHT22;21661;50.794;-1.066;2022-07-10T11:32:40;22.10;99.90
35559;DHT22;21661;50.794;-1.066;2022-07-10T11:35:15;22.20;99.90
35559;DHT22;21661;50.794;-1.066;2022-07-10T11:37:54;22.10;99.90
35559;DHT22;21661;50.794;-1.066;2022-07-10T11:40:20;22.10;99.90
35559;DHT22;21661;50.794;-1.066;2022-07-10T11:42:54;22.20;99.90
35559;DHT22;21661;50.794;-1.066;2022-07-10T11:45:31;22.20;99.90
35559;DHT22;21661;50.794;-1.066;2022-07-10T11:47:59;22.40;99.90
35559;DHT22;21661;50.794;-1.066;2022-07-10T11:50:25;22.40;99.90
35559;DHT22;21661;50.794;-1.066;2022-07-10T11:52:52;22.30;99.90
35559;DHT22;21661;50.794;-1.066;2022-07-10T11:55:23;22.20;99.90
35559;DHT22;21661;50.794;-1.066;2022-07-10T11:57:49;22.30;99.90
35559;DHT22;21661;50.794;-1.066;2022-07-10T12:00:41;22.40;99.90
35559;DHT22;21661;50.794;-1.066;2022-07-10T12:03:18;22.50;99.90
35559;DHT22;21661;50.794;-1.066;2022-07-10T12:05:44;22.50;99.90
35559;DHT22;21661;50.794;-1.066;2022-07-10T12:08:10;22.40;99.90
35559;DHT22;21661;50.794;-1.066;2022-07-10T12:10:36;22.40;99.90
35559;DHT22;21661;50.794;-1.066;2022-07-10T12:13:06;22.20;99.90
35559;DHT22;21661;50.794;-1.066;2022-07-10T12:15:36;22.20;99.90
35559;DHT22;21661;50.794;-1.066;2022-07-10T12:18:04;22.20;99.90
35559;DHT22;21661;50.794;-1.066;2022-07-10T12:20:31;22.40;99.90
35559;DHT22;21661;50.794;-1.066;2022-07-10T12:22:57;22.40;99.90
35559;DHT22;21661;50.794;-1.066;2022-07-10T12:25:23;22.50;99.90
35559;DHT22;21661;50.794;-1.066;2022-07-10T12:27:56;22.50;99.90
35559;DHT22;21661;50.794;-1.066;2022-07-10T12:30:22;22.60;99.90
35559;DHT22;21661;50.794;-1.066;2022-07-10T12:32:48;22.70;99.90
35559;DHT22;21661;50.794;-1.066;2022-07-10T12:35:14;22.70;99.90
35559;DHT22;21661;50.794;-1.066;2022-07-10T12:37:49;22.60;99.90
35559;DHT22;21661;50.794;-1.066;2022-07-10T12:40:33;22.50;99.90
35559;DHT22;21661;50.794;-1.066;2022-07-10T12:43:05;22.40;99.90
35559;DHT22;21661;50.794;-1.066;2022-07-10T12:45:32;22.20;99.90
35559;DHT22;21661;50.794;-1.066;2022-07-10T12:47:57;22.10;99.90
35559;DHT22;21661;50.794;-1.066;2022-07-10T12:50:23;22.20;99.90
35559;DHT22;21661;50.794;-1.066;2022-07-10T12:53:09;22.20;99.90
35559;DHT22;21661;50.794;-1.066;2022-07-10T12:55:37;22.40;99.90
35559;DHT22;21661;50.794;-1.066;2022-07-10T12:58:13;22.40;99.90
35559;DHT22;21661;50.794;-1.066;2022-07-10T13:00:46;22.40;99.90
35559;DHT22;21661;50.794;-1.066;2022-07-10T13:03:19;22.50;99.90
35559;DHT22;21661;50.794;-1.066;2022-07-10T13:05:46;22.60;99.90
35559;DHT22;21661;50.794;-1.066;2022-07-10T13:08:12;22.70;99.90
35559;DHT22;21661;50.794;-1.066;2022-07-10T13:10:46;22.90;99.90
35559;DHT22;21661;50.794;-1.066;2022-07-10T13:13:13;22.90;99.90
35559;DHT22;21661;50.794;-1.066;2022-07-10T13:15:38;22.90;99.90
35559;DHT22;21661;50.794;-1.066;2022-07-10T13:18:22;22.90;99.90
35559;DHT22;21661;50.794;-1.066;2022-07-10T13:20:50;23.00;99.90
35559;DHT22;21661;50.794;-1.066;2022-07-10T13:23:16;23.20;99.90
35559;DHT22;21661;50.794;-1.066;2022-07-10T13:25:43;23.30;99.90
35559;DHT22;21661;50.794;-1.066;2022-07-10T13:28:10;23.40;99.90
35559;DHT22;21661;50.794;-1.066;2022-07-10T13:30:37;23.30;99.90
35559;DHT22;21661;50.794;-1.066;2022-07-10T13:33:03;23.50;99.90
35559;DHT22;21661;50.794;-1.066;2022-07-10T13:35:29;23.60;99.90
35559;DHT22;21661;50.794;-1.066;2022-07-10T13:37:56;23.60;99.90
35559;DHT22;21661;50.794;-1.066;2022-07-10T13:40:28;23.60;99.90
35559;DHT22;21661;50.794;-1.066;2022-07-10T13:42:54;23.40;99.90
35559;DHT22;21661;50.794;-1.066;2022-07-10T13:45:21;23.40;99.90
35559;DHT22;21661;50.794;-1.066;2022-07-10T13:47:48;23.40;99.90
35559;DHT22;21661;50.794;-1.066;2022-07-10T13:50:14;23.40;99.90
35559;DHT22;21661;50.794;-1.066;2022-07-10T13:52:40;23.20;99.90
35559;DHT22;21661;50.794;-1.066;2022-07-10T13:55:05;23.10;99.90
35559;DHT22;21661;50.794;-1.066;2022-07-10T13:57:32;23.00;99.90
35559;DHT22;21661;50.794;-1.066;2022-07-10T13:59:58;23.00;99.90
35559;DHT22;21661;50.794;-1.066;2022-07-10T14:02:24;23.20;99.90
35559;DHT22;21661;50.794;-1.066;2022-07-10T14:04:49;23.10;99.90
35559;DHT22;21661;50.794;-1.066;2022-07-10T14:07:15;23.20;99.90
35559;DHT22;21661;50.794;-1.066;2022-07-10T14:09:40;23.30;99.90
35559;DHT22;21661;50.794;-1.066;2022-07-10T14:12:06;23.50;99.90
35559;DHT22;21661;50.794;-1.066;2022-07-10T14:14:32;23.80;99.90
35559;DHT22;21661;50.794;-1.066;2022-07-10T14:16:58;23.90;99.90
35559;DHT22;21661;50.794;-1.066;2022-07-10T14:19:23;23.80;99.90
35559;DHT22;21661;50.794;-1.066;2022-07-10T14:21:49;23.60;99.90
35559;DHT22;21661;50.794;-1.066;2022-07-10T14:24:15;23.30;99.90
35559;DHT22;21661;50.794;-1.066;2022-07-10T14:26:41;23.30;99.90
35559;DHT22;21661;50.794;-1.066;2022-07-10T14:29:06;23.20;99.90
35559;DHT22;21661;50.794;-1.066;2022-07-10T14:31:33;22.90;99.90
35559;DHT22;21661;50.794;-1.066;2022-07-10T14:33:59;22.90;99.90
35559;DHT22;21661;50.794;-1.066;2022-07-10T14:36:24;23.00;99.90
35559;DHT22;21661;50.794;-1.066;2022-07-10T14:38:54;23.20;99.90
35559;DHT22;21661;50.794;-1.066;2022-07-10T14:41:20;23.10;99.90
35559;DHT22;21661;50.794;-1.066;2022-07-10T14:43:46;22.90;99.90
35559;DHT22;21661;50.794;-1.066;2022-07-10T14:46:12;23.00;99.90
35559;DHT22;21661;50.794;-1.066;2022-07-10T14:48:37;23.30;99.90
35559;DHT22;21661;50.794;-1.066;2022-07-10T14:51:03;23.60;99.90
35559;DHT22;21661;50.794;-1.066;2022-07-10T14:53:29;23.60;99.90
35559;DHT22;21661;50.794;-1.066;2022-07-10T14:56:00;23.50;99.90
35559;DHT22;21661;50.794;-1.066;2022-07-10T14:58:26;23.60;99.90
35559;DHT22;21661;50.794;-1.066;2022-07-10T15:00:51;23.70;99.90
35559;DHT22;21661;50.794;-1.066;2022-07-10T15:03:17;23.70;99.90
35559;DHT22;21661;50.794;-1.066;2022-07-10T15:05:43;23.80;99.90
35559;DHT22;21661;50.794;-1.066;2022-07-10T15:08:08;23.80;99.90
35559;DHT22;21661;50.794;-1.066;2022-07-10T15:10:34;23.90;99.90
35559;DHT22;21661;50.794;-1.066;2022-07-10T15:13:00;23.80;99.90
35559;DHT22;21661;50.794;-1.066;2022-07-10T15:15:30;23.80;99.90
35559;DHT22;21661;50.794;-1.066;2022-07-10T15:17:55;23.60;99.90
35559;DHT22;21661;50.794;-1.066;2022-07-10T15:20:21;23.50;99.90
35559;DHT22;21661;50.794;-1.066;2022-07-10T15:22:47;23.50;99.90
35559;DHT22;21661;50.794;-1.066;2022-07-10T15:25:12;23.40;99.90
35559;DHT22;21661;50.794;-1.066;2022-07-10T15:27:38;23.50;99.90
35559;DHT22;21661;50.794;-1.066;2022-07-10T15:30:05;23.60;99.90
35559;DHT22;21661;50.794;-1.066;2022-07-10T15:32:31;23.80;99.90
35559;DHT22;21661;50.794;-1.066;2022-07-10T15:34:56;24.00;99.90
35559;DHT22;21661;50.794;-1.066;2022-07-10T15:37:22;24.00;99.90